sensor_id;sensor_type;location;lat;lon;timestamp;P1;durP1;ratioP1;P2;durP2;ratioP2
12369;SDS011;6249;52.128;9.986;2022-08-19T00:02:10;17.63;;;11.40;;
12369;SDS011;6249;52.128;9.986;2022-08-19T00:05:30;19.40;;;12.27;;
12369;SDS011;6249;52.128;9.986;2022-08-19T00:08:51;24.90;;;12.97;;
12369;SDS011;6249;52.128;9.986;2022-08-19T00:12:12;17.13;;;12.43;;
12369;SDS011;6249;52.128;9.986;2022-08-19T00:15:33;24.17;;;13.27;;
12369;SDS011;6249;52.128;9.986;2022-08-19T00:18:56;18.90;;;12.30;;
12369;SDS011;6249;52.128;9.986;2022-08-19T00:22:16;16.50;;;12.03;;
12369;SDS011;6249;52.128;9.986;2022-08-19T00:25:38;19.97;;;13.87;;
12369;SDS011;6249;52.128;9.986;2022-08-19T00:29:00;18.43;;;12.57;;
12369;SDS011;6249;52.128;9.986;2022-08-19T00:32:27;22.53;;;15.07;;
12369;SDS011;6249;52.128;9.986;2022-08-19T00:35:47;22.17;;;14.60;;
12369;SDS011;6249;52.128;9.986;2022-08-19T00:39:09;24.00;;;14.60;;
12369;SDS011;6249;52.128;9.986;2022-08-19T00:42:30;20.17;;;12.90;;
12369;SDS011;6249;52.128;9.986;2022-08-19T00:45:53;19.40;;;13.40;;
12369;SDS011;6249;52.128;9.986;2022-08-19T00:49:15;20.47;;;13.10;;
12369;SDS011;6249;52.128;9.986;2022-08-19T00:52:47;27.03;;;13.63;;
12369;SDS011;6249;52.128;9.986;2022-08-19T00:56:10;20.43;;;13.93;;
12369;SDS011;6249;52.128;9.986;2022-08-19T00:59:34;19.60;;;12.97;;
12369;SDS011;6249;52.128;9.986;2022-08-19T01:02:57;23.43;;;13.23;;
12369;SDS011;6249;52.128;9.986;2022-08-19T01:06:18;20.60;;;14.30;;
12369;SDS011;6249;52.128;9.986;2022-08-19T01:09:42;20.07;;;12.97;;
12369;SDS011;6249;52.128;9.986;2022-08-19T01:13:07;21.30;;;13.97;;
12369;SDS011;6249;52.128;9.986;2022-08-19T01:16:31;19.97;;;13.47;;
12369;SDS011;6249;52.128;9.986;2022-08-19T01:19:54;16.73;;;12.30;;
12369;SDS011;6249;52.128;9.986;2022-08-19T01:23:15;23.80;;;13.40;;
12369;SDS011;6249;52.128;9.986;2022-08-19T01:26:42;27.17;;;13.63;;
12369;SDS011;6249;52.128;9.986;2022-08-19T01:30:04;21.00;;;14.03;;
12369;SDS011;6249;52.128;9.986;2022-08-19T01:33:25;19.80;;;12.50;;
12369;SDS011;6249;52.128;9.986;2022-08-19T01:36:46;22.50;;;13.40;;
12369;SDS011;6249;52.128;9.986;2022-08-19T01:40:10;22.63;;;13.90;;
12369;SDS011;6249;52.128;9.986;2022-08-19T01:43:32;29.43;;;14.53;;
12369;SDS011;6249;52.128;9.986;2022-08-19T01:46:56;20.00;;;14.40;;
12369;SDS011;6249;52.128;9.986;2022-08-19T01:50:17;20.43;;;13.20;;
12369;SDS011;6249;52.128;9.986;2022-08-19T01:53:38;23.67;;;14.17;;
12369;SDS011;6249;52.128;9.986;2022-08-19T01:57:06;23.90;;;14.20;;
12369;SDS011;6249;52.128;9.986;2022-08-19T02:00:31;27.63;;;14.03;;
12369;SDS011;6249;52.128;9.986;2022-08-19T02:03:52;22.77;;;13.17;;
12369;SDS011;6249;52.128;9.986;2022-08-19T02:07:15;21.90;;;13.30;;
12369;SDS011;6249;52.128;9.986;2022-08-19T02:10:42;16.40;;;11.80;;
12369;SDS011;6249;52.128;9.986;2022-08-19T02:14:05;20.33;;;13.40;;
12369;SDS011;6249;52.128;9.986;2022-08-19T02:17:27;21.90;;;12.90;;
12369;SDS011;6249;52.128;9.986;2022-08-19T02:20:48;23.60;;;13.63;;
12369;SDS011;6249;52.128;9.986;2022-08-19T02:24:11;19.47;;;14.13;;
12369;SDS011;6249;52.128;9.986;2022-08-19T02:27:34;24.30;;;14.90;;
12369;SDS011;6249;52.128;9.986;2022-08-19T02:31:00;20.20;;;13.70;;
12369;SDS011;6249;52.128;9.986;2022-08-19T02:34:22;23.87;;;14.20;;
12369;SDS011;6249;52.128;9.986;2022-08-19T02:37:45;23.80;;;14.83;;
12369;SDS011;6249;52.128;9.986;2022-08-19T02:41:25;26.63;;;14.13;;
12369;SDS011;6249;52.128;9.986;2022-08-19T02:44:55;26.00;;;14.90;;
12369;SDS011;6249;52.128;9.986;2022-08-19T02:48:21;19.47;;;13.33;;
12369;SDS011;6249;52.128;9.986;2022-08-19T02:51:43;27.53;;;14.20;;
12369;SDS011;6249;52.128;9.986;2022-08-19T02:55:05;21.70;;;14.37;;
12369;SDS011;6249;52.128;9.986;2022-08-19T02:58:26;22.47;;;14.53;;
12369;SDS011;6249;52.128;9.986;2022-08-19T03:01:47;27.17;;;13.90;;
12369;SDS011;6249;52.128;9.986;2022-08-19T03:05:08;25.43;;;15.30;;
12369;SDS011;6249;52.128;9.986;2022-08-19T03:08:30;22.63;;;14.00;;
12369;SDS011;6249;52.128;9.986;2022-08-19T03:11:50;22.20;;;14.00;;
12369;SDS011;6249;52.128;9.986;2022-08-19T03:15:11;22.33;;;14.10;;
12369;SDS011;6249;52.128;9.986;2022-08-19T03:18:32;22.13;;;15.60;;
12369;SDS011;6249;52.128;9.986;2022-08-19T03:21:53;28.07;;;15.20;;
12369;SDS011;6249;52.128;9.986;2022-08-19T03:25:17;28.80;;;16.20;;
12369;SDS011;6249;52.128;9.986;2022-08-19T03:28:38;24.83;;;16.60;;
12369;SDS011;6249;52.128;9.986;2022-08-19T03:32:03;26.23;;;15.90;;
12369;SDS011;6249;52.128;9.986;2022-08-19T03:35:27;21.67;;;14.10;;
12369;SDS011;6249;52.128;9.986;2022-08-19T03:38:52;26.30;;;15.90;;
12369;SDS011;6249;52.128;9.986;2022-08-19T03:42:17;21.07;;;15.10;;
12369;SDS011;6249;52.128;9.986;2022-08-19T03:45:40;28.73;;;15.97;;
12369;SDS011;6249;52.128;9.986;2022-08-19T03:49:03;26.43;;;15.77;;
12369;SDS011;6249;52.128;9.986;2022-08-19T03:52:28;22.53;;;15.10;;
12369;SDS011;6249;52.128;9.986;2022-08-19T03:55:51;23.70;;;15.87;;
12369;SDS011;6249;52.128;9.986;2022-08-19T03:59:16;32.23;;;17.53;;
12369;SDS011;6249;52.128;9.986;2022-08-19T04:02:38;29.50;;;18.50;;
12369;SDS011;6249;52.128;9.986;2022-08-19T04:05:59;27.37;;;18.97;;
12369;SDS011;6249;52.128;9.986;2022-08-19T04:09:35;34.63;;;17.73;;
12369;SDS011;6249;52.128;9.986;2022-08-19T04:12:56;26.93;;;18.80;;
12369;SDS011;6249;52.128;9.986;2022-08-19T04:16:19;27.83;;;18.10;;
12369;SDS011;6249;52.128;9.986;2022-08-19T04:19:46;33.53;;;19.83;;
12369;SDS011;6249;52.128;9.986;2022-08-19T04:23:09;38.93;;;18.20;;
12369;SDS011;6249;52.128;9.986;2022-08-19T04:26:34;31.77;;;19.17;;
12369;SDS011;6249;52.128;9.986;2022-08-19T04:29:57;26.30;;;19.07;;
12369;SDS011;6249;52.128;9.986;2022-08-19T04:33:18;30.70;;;17.57;;
12369;SDS011;6249;52.128;9.986;2022-08-19T04:36:43;31.07;;;19.10;;
12369;SDS011;6249;52.128;9.986;2022-08-19T04:40:05;79.17;;;44.63;;
12369;SDS011;6249;52.128;9.986;2022-08-19T04:43:45;29.63;;;18.20;;
12369;SDS011;6249;52.128;9.986;2022-08-19T04:47:08;28.00;;;17.07;;
12369;SDS011;6249;52.128;9.986;2022-08-19T04:50:29;30.70;;;17.50;;
12369;SDS011;6249;52.128;9.986;2022-08-19T04:53:50;27.50;;;17.90;;
12369;SDS011;6249;52.128;9.986;2022-08-19T04:57:14;35.60;;;17.33;;
12369;SDS011;6249;52.128;9.986;2022-08-19T05:00:37;31.23;;;17.33;;
12369;SDS011;6249;52.128;9.986;2022-08-19T05:04:00;24.70;;;15.57;;
12369;SDS011;6249;52.128;9.986;2022-08-19T05:07:21;27.90;;;17.00;;
12369;SDS011;6249;52.128;9.986;2022-08-19T05:10:42;27.47;;;16.33;;
12369;SDS011;6249;52.128;9.986;2022-08-19T05:14:08;20.90;;;15.23;;
12369;SDS011;6249;52.128;9.986;2022-08-19T05:17:31;24.93;;;15.10;;
12369;SDS011;6249;52.128;9.986;2022-08-19T05:20:54;22.70;;;15.30;;
12369;SDS011;6249;52.128;9.986;2022-08-19T05:24:34;21.13;;;14.77;;
12369;SDS011;6249;52.128;9.986;2022-08-19T05:27:54;23.90;;;15.27;;
12369;SDS011;6249;52.128;9.986;2022-08-19T05:31:18;18.20;;;13.63;;
12369;SDS011;6249;52.128;9.986;2022-08-19T05:34:39;17.43;;;12.50;;
12369;SDS011;6249;52.128;9.986;2022-08-19T05:37:59;22.70;;;11.80;;
12369;SDS011;6249;52.128;9.986;2022-08-19T05:41:22;24.03;;;13.20;;
12369;SDS011;6249;52.128;9.986;2022-08-19T05:44:50;19.97;;;12.47;;
12369;SDS011;6249;52.128;9.986;2022-08-19T05:48:13;17.73;;;11.70;;
12369;SDS011;6249;52.128;9.986;2022-08-19T05:51:40;20.03;;;12.83;;
12369;SDS011;6249;52.128;9.986;2022-08-19T05:55:01;18.33;;;12.17;;
12369;SDS011;6249;52.128;9.986;2022-08-19T05:58:25;20.87;;;12.53;;
12369;SDS011;6249;52.128;9.986;2022-08-19T06:01:49;21.00;;;12.00;;
12369;SDS011;6249;52.128;9.986;2022-08-19T06:05:15;19.13;;;11.50;;
12369;SDS011;6249;52.128;9.986;2022-08-19T06:08:36;17.47;;;12.00;;
12369;SDS011;6249;52.128;9.986;2022-08-19T06:11:58;17.80;;;12.43;;
12369;SDS011;6249;52.128;9.986;2022-08-19T06:15:19;15.70;;;10.47;;
12369;SDS011;6249;52.128;9.986;2022-08-19T06:18:46;18.47;;;11.17;;
12369;SDS011;6249;52.128;9.986;2022-08-19T06:22:07;21.33;;;12.60;;
12369;SDS011;6249;52.128;9.986;2022-08-19T06:25:27;16.37;;;11.60;;
12369;SDS011;6249;52.128;9.986;2022-08-19T06:28:51;23.57;;;13.80;;
12369;SDS011;6249;52.128;9.986;2022-08-19T06:32:13;18.93;;;12.10;;
12369;SDS011;6249;52.128;9.986;2022-08-19T06:35:38;20.73;;;14.00;;
12369;SDS011;6249;52.128;9.986;2022-08-19T06:39:00;19.57;;;12.73;;
12369;SDS011;6249;52.128;9.986;2022-08-19T06:42:25;23.33;;;13.63;;
12369;SDS011;6249;52.128;9.986;2022-08-19T06:45:46;20.63;;;14.17;;
12369;SDS011;6249;52.128;9.986;2022-08-19T06:49:06;22.57;;;13.50;;
12369;SDS011;6249;52.128;9.986;2022-08-19T06:52:36;19.57;;;13.03;;
12369;SDS011;6249;52.128;9.986;2022-08-19T06:55:59;21.43;;;13.57;;
12369;SDS011;6249;52.128;9.986;2022-08-19T06:59:25;21.07;;;13.07;;
12369;SDS011;6249;52.128;9.986;2022-08-19T07:02:48;19.00;;;13.50;;
12369;SDS011;6249;52.128;9.986;2022-08-19T07:06:10;20.60;;;12.63;;
12369;SDS011;6249;52.128;9.986;2022-08-19T07:09:38;21.70;;;13.80;;
12369;SDS011;6249;52.128;9.986;2022-08-19T07:13:02;24.33;;;13.63;;
12369;SDS011;6249;52.128;9.986;2022-08-19T07:16:26;22.50;;;14.53;;
12369;SDS011;6249;52.128;9.986;2022-08-19T07:19:49;24.93;;;17.13;;
12369;SDS011;6249;52.128;9.986;2022-08-19T07:23:12;22.77;;;15.17;;
12369;SDS011;6249;52.128;9.986;2022-08-19T07:26:37;27.43;;;17.80;;
12369;SDS011;6249;52.128;9.986;2022-08-19T07:29:59;30.90;;;17.37;;
12369;SDS011;6249;52.128;9.986;2022-08-19T07:33:20;24.03;;;17.07;;
12369;SDS011;6249;52.128;9.986;2022-08-19T07:36:41;25.33;;;17.97;;
12369;SDS011;6249;52.128;9.986;2022-08-19T07:40:05;23.80;;;17.00;;
12369;SDS011;6249;52.128;9.986;2022-08-19T07:43:27;28.67;;;17.90;;
12369;SDS011;6249;52.128;9.986;2022-08-19T07:46:49;30.23;;;18.53;;
12369;SDS011;6249;52.128;9.986;2022-08-19T07:50:16;28.13;;;19.20;;
12369;SDS011;6249;52.128;9.986;2022-08-19T07:53:40;25.37;;;17.20;;
12369;SDS011;6249;52.128;9.986;2022-08-19T07:57:00;22.57;;;17.27;;
12369;SDS011;6249;52.128;9.986;2022-08-19T08:00:21;22.73;;;16.20;;
12369;SDS011;6249;52.128;9.986;2022-08-19T08:03:43;25.77;;;17.00;;
12369;SDS011;6249;52.128;9.986;2022-08-19T08:07:22;22.50;;;15.00;;
12369;SDS011;6249;52.128;9.986;2022-08-19T08:11:01;27.03;;;16.40;;
12369;SDS011;6249;52.128;9.986;2022-08-19T08:14:24;18.57;;;14.80;;
12369;SDS011;6249;52.128;9.986;2022-08-19T08:17:46;24.90;;;16.50;;
12369;SDS011;6249;52.128;9.986;2022-08-19T08:21:07;18.70;;;13.60;;
12369;SDS011;6249;52.128;9.986;2022-08-19T08:24:29;24.60;;;13.83;;
12369;SDS011;6249;52.128;9.986;2022-08-19T08:27:53;16.07;;;12.10;;
12369;SDS011;6249;52.128;9.986;2022-08-19T08:31:14;20.43;;;14.77;;
12369;SDS011;6249;52.128;9.986;2022-08-19T08:34:35;23.90;;;14.57;;
12369;SDS011;6249;52.128;9.986;2022-08-19T08:37:56;19.00;;;12.93;;
12369;SDS011;6249;52.128;9.986;2022-08-19T08:44:57;18.57;;;12.57;;
12369;SDS011;6249;52.128;9.986;2022-08-19T08:48:34;20.60;;;12.17;;
12369;SDS011;6249;52.128;9.986;2022-08-19T08:55:22;14.40;;;10.73;;
12369;SDS011;6249;52.128;9.986;2022-08-19T09:02:18;13.57;;;9.33;;
12369;SDS011;6249;52.128;9.986;2022-08-19T09:05:45;12.87;;;9.00;;
12369;SDS011;6249;52.128;9.986;2022-08-19T09:09:17;12.43;;;8.13;;
12369;SDS011;6249;52.128;9.986;2022-08-19T09:16:17;11.47;;;7.90;;
12369;SDS011;6249;52.128;9.986;2022-08-19T09:19:51;11.87;;;8.00;;
12369;SDS011;6249;52.128;9.986;2022-08-19T09:23:15;13.10;;;8.70;;
12369;SDS011;6249;52.128;9.986;2022-08-19T09:26:35;15.90;;;8.33;;
12369;SDS011;6249;52.128;9.986;2022-08-19T09:29:58;11.83;;;8.03;;
12369;SDS011;6249;52.128;9.986;2022-08-19T09:33:19;12.30;;;7.50;;
12369;SDS011;6249;52.128;9.986;2022-08-19T09:36:40;10.93;;;7.50;;
12369;SDS011;6249;52.128;9.986;2022-08-19T09:40:03;6.97;;;4.90;;
12369;SDS011;6249;52.128;9.986;2022-08-19T09:43:24;13.77;;;5.53;;
12369;SDS011;6249;52.128;9.986;2022-08-19T09:46:47;8.37;;;4.90;;
12369;SDS011;6249;52.128;9.986;2022-08-19T09:50:11;10.60;;;4.63;;
12369;SDS011;6249;52.128;9.986;2022-08-19T09:53:34;8.63;;;4.00;;
12369;SDS011;6249;52.128;9.986;2022-08-19T09:56:58;6.63;;;3.77;;
12369;SDS011;6249;52.128;9.986;2022-08-19T10:00:22;7.10;;;3.77;;
12369;SDS011;6249;52.128;9.986;2022-08-19T10:03:43;7.70;;;4.07;;
12369;SDS011;6249;52.128;9.986;2022-08-19T10:07:05;8.73;;;3.53;;
12369;SDS011;6249;52.128;9.986;2022-08-19T10:10:28;6.80;;;4.07;;
12369;SDS011;6249;52.128;9.986;2022-08-19T10:13:49;11.00;;;4.80;;
12369;SDS011;6249;52.128;9.986;2022-08-19T10:17:10;8.37;;;3.73;;
12369;SDS011;6249;52.128;9.986;2022-08-19T10:20:31;6.20;;;4.23;;
12369;SDS011;6249;52.128;9.986;2022-08-19T10:23:52;8.07;;;4.67;;
12369;SDS011;6249;52.128;9.986;2022-08-19T10:27:18;6.40;;;4.20;;
12369;SDS011;6249;52.128;9.986;2022-08-19T10:30:39;6.53;;;3.50;;
12369;SDS011;6249;52.128;9.986;2022-08-19T10:34:00;6.27;;;4.20;;
12369;SDS011;6249;52.128;9.986;2022-08-19T10:37:21;6.53;;;4.00;;
12369;SDS011;6249;52.128;9.986;2022-08-19T10:40:42;6.30;;;3.03;;
12369;SDS011;6249;52.128;9.986;2022-08-19T10:44:06;7.03;;;3.27;;
12369;SDS011;6249;52.128;9.986;2022-08-19T10:47:28;3.73;;;2.23;;
12369;SDS011;6249;52.128;9.986;2022-08-19T10:50:49;6.37;;;2.60;;
12369;SDS011;6249;52.128;9.986;2022-08-19T10:54:31;5.20;;;2.50;;
12369;SDS011;6249;52.128;9.986;2022-08-19T10:58:18;6.77;;;2.60;;
12369;SDS011;6249;52.128;9.986;2022-08-19T11:01:47;6.30;;;2.70;;
12369;SDS011;6249;52.128;9.986;2022-08-19T11:05:13;4.13;;;1.97;;
12369;SDS011;6249;52.128;9.986;2022-08-19T11:08:35;4.40;;;2.63;;
12369;SDS011;6249;52.128;9.986;2022-08-19T11:11:58;6.77;;;2.90;;
12369;SDS011;6249;52.128;9.986;2022-08-19T11:15:19;4.60;;;2.23;;
12369;SDS011;6249;52.128;9.986;2022-08-19T11:18:41;4.73;;;2.00;;
12369;SDS011;6249;52.128;9.986;2022-08-19T11:22:07;7.73;;;1.73;;
12369;SDS011;6249;52.128;9.986;2022-08-19T11:25:33;4.60;;;1.70;;
12369;SDS011;6249;52.128;9.986;2022-08-19T11:28:55;15.97;;;10.77;;
12369;SDS011;6249;52.128;9.986;2022-08-19T11:32:19;3.97;;;1.90;;
12369;SDS011;6249;52.128;9.986;2022-08-19T11:35:42;5.80;;;1.90;;
12369;SDS011;6249;52.128;9.986;2022-08-19T11:39:06;10.43;;;2.10;;
12369;SDS011;6249;52.128;9.986;2022-08-19T11:42:27;3.47;;;1.60;;
12369;SDS011;6249;52.128;9.986;2022-08-19T11:46:10;4.60;;;1.80;;
12369;SDS011;6249;52.128;9.986;2022-08-19T11:49:33;3.50;;;1.33;;
12369;SDS011;6249;52.128;9.986;2022-08-19T11:52:56;4.30;;;1.20;;
12369;SDS011;6249;52.128;9.986;2022-08-19T11:56:20;3.10;;;1.43;;
12369;SDS011;6249;52.128;9.986;2022-08-19T11:59:41;3.80;;;1.60;;
12369;SDS011;6249;52.128;9.986;2022-08-19T12:03:09;3.77;;;1.80;;
12369;SDS011;6249;52.128;9.986;2022-08-19T12:06:33;7.03;;;1.40;;
12369;SDS011;6249;52.128;9.986;2022-08-19T12:09:58;6.07;;;1.43;;
12369;SDS011;6249;52.128;9.986;2022-08-19T12:13:19;5.80;;;1.60;;
12369;SDS011;6249;52.128;9.986;2022-08-19T12:16:40;6.40;;;1.30;;
12369;SDS011;6249;52.128;9.986;2022-08-19T12:20:01;4.70;;;1.40;;
12369;SDS011;6249;52.128;9.986;2022-08-19T12:23:25;3.40;;;1.40;;
12369;SDS011;6249;52.128;9.986;2022-08-19T12:26:46;3.37;;;1.30;;
12369;SDS011;6249;52.128;9.986;2022-08-19T12:30:10;3.30;;;1.50;;
12369;SDS011;6249;52.128;9.986;2022-08-19T12:33:34;5.27;;;1.60;;
12369;SDS011;6249;52.128;9.986;2022-08-19T12:36:58;4.30;;;1.60;;
12369;SDS011;6249;52.128;9.986;2022-08-19T12:40:21;5.60;;;1.57;;
12369;SDS011;6249;52.128;9.986;2022-08-19T12:43:41;4.43;;;1.70;;
12369;SDS011;6249;52.128;9.986;2022-08-19T12:47:02;6.27;;;1.57;;
12369;SDS011;6249;52.128;9.986;2022-08-19T12:50:24;5.60;;;1.40;;
12369;SDS011;6249;52.128;9.986;2022-08-19T12:53:45;3.80;;;1.60;;
12369;SDS011;6249;52.128;9.986;2022-08-19T12:57:07;3.33;;;1.67;;
12369;SDS011;6249;52.128;9.986;2022-08-19T13:00:31;5.63;;;2.90;;
12369;SDS011;6249;52.128;9.986;2022-08-19T13:03:54;5.30;;;1.30;;
12369;SDS011;6249;52.128;9.986;2022-08-19T13:07:17;4.90;;;1.43;;
12369;SDS011;6249;52.128;9.986;2022-08-19T13:10:43;4.30;;;1.37;;
12369;SDS011;6249;52.128;9.986;2022-08-19T13:14:06;4.13;;;1.37;;
12369;SDS011;6249;52.128;9.986;2022-08-19T13:17:27;3.60;;;1.23;;
12369;SDS011;6249;52.128;9.986;2022-08-19T13:20:48;4.23;;;1.20;;
12369;SDS011;6249;52.128;9.986;2022-08-19T13:24:08;14.57;;;10.83;;
12369;SDS011;6249;52.128;9.986;2022-08-19T13:27:31;4.67;;;1.17;;
12369;SDS011;6249;52.128;9.986;2022-08-19T13:30:55;3.43;;;1.60;;
12369;SDS011;6249;52.128;9.986;2022-08-19T13:34:38;2.53;;;1.13;;
12369;SDS011;6249;52.128;9.986;2022-08-19T13:37:59;5.40;;;1.60;;
12369;SDS011;6249;52.128;9.986;2022-08-19T13:41:21;3.00;;;1.30;;
12369;SDS011;6249;52.128;9.986;2022-08-19T13:44:46;3.00;;;1.20;;
12369;SDS011;6249;52.128;9.986;2022-08-19T13:48:07;3.13;;;1.27;;
12369;SDS011;6249;52.128;9.986;2022-08-19T13:51:28;4.87;;;1.40;;
12369;SDS011;6249;52.128;9.986;2022-08-19T13:54:49;4.97;;;1.40;;
12369;SDS011;6249;52.128;9.986;2022-08-19T13:58:14;3.73;;;1.53;;
12369;SDS011;6249;52.128;9.986;2022-08-19T14:01:35;3.50;;;1.47;;
12369;SDS011;6249;52.128;9.986;2022-08-19T14:04:57;5.65;;;1.40;;
12369;SDS011;6249;52.128;9.986;2022-08-19T14:08:20;4.68;;;2.63;;
12369;SDS011;6249;52.128;9.986;2022-08-19T14:11:41;4.07;;;2.25;;
12369;SDS011;6249;52.128;9.986;2022-08-19T14:15:07;7.20;;;1.25;;
12369;SDS011;6249;52.128;9.986;2022-08-19T14:18:31;4.63;;;2.75;;
12369;SDS011;6249;52.128;9.986;2022-08-19T14:21:52;4.60;;;1.40;;
12369;SDS011;6249;52.128;9.986;2022-08-19T14:25:16;2.10;;;1.00;;
12369;SDS011;6249;52.128;9.986;2022-08-19T14:28:38;5.95;;;1.42;;
12369;SDS011;6249;52.128;9.986;2022-08-19T14:32:02;3.90;;;1.50;;
12369;SDS011;6249;52.128;9.986;2022-08-19T14:35:23;3.30;;;1.17;;
12369;SDS011;6249;52.128;9.986;2022-08-19T14:38:45;3.60;;;1.50;;
12369;SDS011;6249;52.128;9.986;2022-08-19T14:42:08;6.60;;;1.45;;
12369;SDS011;6249;52.128;9.986;2022-08-19T14:45:35;3.13;;;1.30;;
12369;SDS011;6249;52.128;9.986;2022-08-19T14:48:57;8.55;;;1.10;;
12369;SDS011;6249;52.128;9.986;2022-08-19T14:52:20;3.65;;;1.42;;
12369;SDS011;6249;52.128;9.986;2022-08-19T14:55:42;2.80;;;1.40;;
12369;SDS011;6249;52.128;9.986;2022-08-19T14:59:04;3.72;;;1.40;;
12369;SDS011;6249;52.128;9.986;2022-08-19T15:02:27;3.83;;;1.60;;
12369;SDS011;6249;52.128;9.986;2022-08-19T15:05:50;4.13;;;1.27;;
12369;SDS011;6249;52.128;9.986;2022-08-19T15:09:13;4.72;;;1.55;;
12369;SDS011;6249;52.128;9.986;2022-08-19T15:12:34;3.15;;;1.30;;
12369;SDS011;6249;52.128;9.986;2022-08-19T15:15:55;3.67;;;1.60;;
12369;SDS011;6249;52.128;9.986;2022-08-19T15:19:17;5.47;;;1.50;;
12369;SDS011;6249;52.128;9.986;2022-08-19T15:22:37;6.90;;;1.98;;
12369;SDS011;6249;52.128;9.986;2022-08-19T15:26:02;3.47;;;1.50;;
12369;SDS011;6249;52.128;9.986;2022-08-19T15:29:22;5.30;;;1.83;;
12369;SDS011;6249;52.128;9.986;2022-08-19T15:32:44;7.40;;;1.57;;
12369;SDS011;6249;52.128;9.986;2022-08-19T15:36:05;5.77;;;1.37;;
12369;SDS011;6249;52.128;9.986;2022-08-19T15:39:25;6.20;;;1.50;;
12369;SDS011;6249;52.128;9.986;2022-08-19T15:42:51;10.60;;;2.30;;
12369;SDS011;6249;52.128;9.986;2022-08-19T15:46:23;6.60;;;1.33;;
12369;SDS011;6249;52.128;9.986;2022-08-19T15:49:47;5.00;;;1.60;;
12369;SDS011;6249;52.128;9.986;2022-08-19T15:53:08;3.87;;;1.40;;
12369;SDS011;6249;52.128;9.986;2022-08-19T15:56:30;2.67;;;1.10;;
12369;SDS011;6249;52.128;9.986;2022-08-19T16:00:08;7.70;;;1.50;;
12369;SDS011;6249;52.128;9.986;2022-08-19T16:03:58;5.43;;;2.13;;
12369;SDS011;6249;52.128;9.986;2022-08-19T16:07:38;7.10;;;3.30;;
12369;SDS011;6249;52.128;9.986;2022-08-19T16:10:59;5.40;;;1.50;;
12369;SDS011;6249;52.128;9.986;2022-08-19T16:14:23;6.33;;;1.53;;
12369;SDS011;6249;52.128;9.986;2022-08-19T16:17:44;5.80;;;1.37;;
12369;SDS011;6249;52.128;9.986;2022-08-19T16:21:05;2.57;;;1.10;;
12369;SDS011;6249;52.128;9.986;2022-08-19T16:24:27;4.60;;;1.30;;
12369;SDS011;6249;52.128;9.986;2022-08-19T16:27:47;3.60;;;1.20;;
12369;SDS011;6249;52.128;9.986;2022-08-19T16:31:09;3.37;;;1.20;;
12369;SDS011;6249;52.128;9.986;2022-08-19T16:34:31;3.33;;;1.67;;
12369;SDS011;6249;52.128;9.986;2022-08-19T16:37:52;3.20;;;1.63;;
12369;SDS011;6249;52.128;9.986;2022-08-19T16:41:13;3.57;;;1.60;;
12369;SDS011;6249;52.128;9.986;2022-08-19T16:44:39;4.00;;;1.80;;
12369;SDS011;6249;52.128;9.986;2022-08-19T16:48:01;3.30;;;1.30;;
12369;SDS011;6249;52.128;9.986;2022-08-19T16:51:24;3.10;;;1.67;;
12369;SDS011;6249;52.128;9.986;2022-08-19T16:54:45;5.93;;;1.80;;
12369;SDS011;6249;52.128;9.986;2022-08-19T16:58:09;14.10;;;11.33;;
12369;SDS011;6249;52.128;9.986;2022-08-19T17:01:31;13.37;;;2.17;;
12369;SDS011;6249;52.128;9.986;2022-08-19T17:04:57;3.37;;;1.60;;
12369;SDS011;6249;52.128;9.986;2022-08-19T17:08:25;3.80;;;1.77;;
12369;SDS011;6249;52.128;9.986;2022-08-19T17:11:48;7.00;;;2.00;;
12369;SDS011;6249;52.128;9.986;2022-08-19T17:15:14;4.90;;;1.87;;
12369;SDS011;6249;52.128;9.986;2022-08-19T17:18:34;6.40;;;2.00;;
12369;SDS011;6249;52.128;9.986;2022-08-19T17:21:55;11.83;;;2.30;;
12369;SDS011;6249;52.128;9.986;2022-08-19T17:25:18;5.30;;;1.63;;
12369;SDS011;6249;52.128;9.986;2022-08-19T17:28:38;13.07;;;8.80;;
12369;SDS011;6249;52.128;9.986;2022-08-19T17:31:59;7.10;;;3.33;;
12369;SDS011;6249;52.128;9.986;2022-08-19T17:35:20;3.47;;;1.70;;
12369;SDS011;6249;52.128;9.986;2022-08-19T17:38:43;12.53;;;2.30;;
12369;SDS011;6249;52.128;9.986;2022-08-19T17:42:04;5.20;;;1.97;;
12369;SDS011;6249;52.128;9.986;2022-08-19T17:45:24;4.17;;;1.70;;
12369;SDS011;6249;52.128;9.986;2022-08-19T17:48:49;3.17;;;1.43;;
12369;SDS011;6249;52.128;9.986;2022-08-19T17:52:14;3.57;;;1.50;;
12369;SDS011;6249;52.128;9.986;2022-08-19T17:55:37;4.13;;;1.50;;
12369;SDS011;6249;52.128;9.986;2022-08-19T17:59:00;3.80;;;1.40;;
12369;SDS011;6249;52.128;9.986;2022-08-19T18:02:23;7.57;;;1.90;;
12369;SDS011;6249;52.128;9.986;2022-08-19T18:05:44;6.80;;;1.80;;
12369;SDS011;6249;52.128;9.986;2022-08-19T18:09:05;4.83;;;1.53;;
12369;SDS011;6249;52.128;9.986;2022-08-19T18:12:28;5.70;;;2.00;;
12369;SDS011;6249;52.128;9.986;2022-08-19T18:15:54;5.50;;;2.73;;
12369;SDS011;6249;52.128;9.986;2022-08-19T18:19:19;5.10;;;1.87;;
12369;SDS011;6249;52.128;9.986;2022-08-19T18:22:43;4.00;;;1.77;;
12369;SDS011;6249;52.128;9.986;2022-08-19T18:26:05;4.80;;;1.93;;
12369;SDS011;6249;52.128;9.986;2022-08-19T18:29:26;4.13;;;1.20;;
12369;SDS011;6249;52.128;9.986;2022-08-19T18:32:48;4.07;;;1.60;;
12369;SDS011;6249;52.128;9.986;2022-08-19T18:36:11;5.60;;;1.90;;
12369;SDS011;6249;52.128;9.986;2022-08-19T18:39:34;5.63;;;1.60;;
12369;SDS011;6249;52.128;9.986;2022-08-19T18:43:13;2.90;;;1.30;;
12369;SDS011;6249;52.128;9.986;2022-08-19T18:46:48;6.70;;;1.70;;
12369;SDS011;6249;52.128;9.986;2022-08-19T18:50:27;3.63;;;1.57;;
12369;SDS011;6249;52.128;9.986;2022-08-19T18:53:50;5.70;;;1.70;;
12369;SDS011;6249;52.128;9.986;2022-08-19T18:57:14;4.53;;;1.63;;
12369;SDS011;6249;52.128;9.986;2022-08-19T19:00:35;5.03;;;1.57;;
12369;SDS011;6249;52.128;9.986;2022-08-19T19:03:58;5.23;;;1.33;;
12369;SDS011;6249;52.128;9.986;2022-08-19T19:07:23;5.30;;;1.60;;
12369;SDS011;6249;52.128;9.986;2022-08-19T19:10:47;4.80;;;2.30;;
12369;SDS011;6249;52.128;9.986;2022-08-19T19:14:13;8.80;;;2.03;;
12369;SDS011;6249;52.128;9.986;2022-08-19T19:17:37;7.13;;;2.40;;
12369;SDS011;6249;52.128;9.986;2022-08-19T19:20:58;4.90;;;2.40;;
12369;SDS011;6249;52.128;9.986;2022-08-19T19:24:23;9.83;;;2.13;;
12369;SDS011;6249;52.128;9.986;2022-08-19T19:27:49;4.97;;;2.10;;
12369;SDS011;6249;52.128;9.986;2022-08-19T19:31:17;4.63;;;2.20;;
12369;SDS011;6249;52.128;9.986;2022-08-19T19:34:45;3.33;;;1.70;;
12369;SDS011;6249;52.128;9.986;2022-08-19T19:38:06;3.70;;;1.57;;
12369;SDS011;6249;52.128;9.986;2022-08-19T19:41:27;4.97;;;2.00;;
12369;SDS011;6249;52.128;9.986;2022-08-19T19:44:49;4.50;;;1.63;;
12369;SDS011;6249;52.128;9.986;2022-08-19T19:48:14;3.30;;;1.57;;
12369;SDS011;6249;52.128;9.986;2022-08-19T19:51:37;3.10;;;1.40;;
12369;SDS011;6249;52.128;9.986;2022-08-19T19:55:03;5.10;;;1.70;;
12369;SDS011;6249;52.128;9.986;2022-08-19T19:58:25;7.90;;;1.63;;
12369;SDS011;6249;52.128;9.986;2022-08-19T20:01:47;3.33;;;1.53;;
12369;SDS011;6249;52.128;9.986;2022-08-19T20:05:10;3.77;;;1.43;;
12369;SDS011;6249;52.128;9.986;2022-08-19T20:08:34;6.63;;;1.70;;
12369;SDS011;6249;52.128;9.986;2022-08-19T20:12:16;5.87;;;1.63;;
12369;SDS011;6249;52.128;9.986;2022-08-19T20:15:37;8.23;;;1.70;;
12369;SDS011;6249;52.128;9.986;2022-08-19T20:19:02;5.83;;;1.73;;
12369;SDS011;6249;52.128;9.986;2022-08-19T20:22:29;4.40;;;2.20;;
12369;SDS011;6249;52.128;9.986;2022-08-19T20:25:52;6.97;;;2.00;;
12369;SDS011;6249;52.128;9.986;2022-08-19T20:29:16;5.70;;;2.00;;
12369;SDS011;6249;52.128;9.986;2022-08-19T20:32:43;4.20;;;2.27;;
12369;SDS011;6249;52.128;9.986;2022-08-19T20:36:05;4.33;;;2.23;;
12369;SDS011;6249;52.128;9.986;2022-08-19T20:39:26;3.93;;;1.80;;
12369;SDS011;6249;52.128;9.986;2022-08-19T20:42:49;7.53;;;1.67;;